Time;durP1;ratioP1;P1;durP2;ratioP2;P2;SDS_P1;SDS_P2;PMS_P1;PMS_P2;Temp;Humidity;BMP_temperature;BMP_pressure;BME280_temperature;BME280_humidity;BME280_pressure;Samples;Min_cycle;Max_cycle;Signal;HPM_P1;HPM_P2
2022/08/23 00:01:09;;;;;;;11.60;4.60;;;;;;;-146.58;100.00;69501.63;4992993;28;20043;-65
2022/08/23 00:03:35;;;;;;;14.30;5.75;;;;;;;-146.58;100.00;69501.63;4993915;28;20581;-64
2022/08/23 00:06:01;;;;;;;11.02;4.88;;;;;;;-146.58;100.00;69501.63;4992849;28;20053;-64
2022/08/23 00:08:26;;;;;;;8.18;4.80;;;;;;;-146.58;100.00;69501.63;4993614;28;20081;-64
2022/08/23 00:10:51;;;;;;;9.10;5.43;;;;;;;-146.58;100.00;69501.63;4992745;28;20038;-64
2022/08/23 00:13:17;;;;;;;7.93;4.93;;;;;;;-146.58;100.00;69501.63;4994253;28;20030;-64
2022/08/23 00:15:42;;;;;;;10.50;5.43;;;;;;;-146.58;100.00;69501.63;4992467;28;20035;-64
2022/08/23 00:18:07;;;;;;;13.63;5.93;;;;;;;-146.58;100.00;69501.63;4994028;28;20478;-64
2022/08/23 00:20:33;;;;;;;12.10;5.93;;;;;;;-146.58;100.00;69501.63;4992344;28;20124;-65
2022/08/23 00:22:58;;;;;;;9.88;5.45;;;;;;;-146.58;100.00;69501.63;4993801;28;20038;-64
2022/08/23 00:25:23;;;;;;;9.85;4.43;;;;;;;-146.58;100.00;69501.63;4992300;28;20054;-64
2022/08/23 00:27:49;;;;;;;15.77;4.63;;;;;;;-146.58;100.00;69501.63;4993613;28;20086;-64
2022/08/23 00:30:15;;;;;;;13.80;5.47;;;;;;;-146.58;100.00;69501.63;4992368;28;20492;-65
2022/08/23 00:32:40;;;;;;;7.57;4.68;;;;;;;-146.58;100.00;69501.63;4994062;28;20022;-64
2022/08/23 00:35:08;;;;;;;11.75;5.90;;;;;;;-146.58;100.00;69501.63;4992085;28;20573;-64
2022/08/23 00:37:35;;;;;;;7.07;5.43;;;;;;;-146.58;100.00;69501.63;4991044;28;20108;-65
2022/08/23 00:40:00;;;;;;;8.07;5.70;;;;;;;-146.58;100.00;69501.63;4992479;28;20046;-64
2022/08/23 00:48:25;;;;;;;10.10;5.63;;;;;;;-146.58;100.00;69501.63;4992187;28;20065;-64
2022/08/23 00:51:14;;;;;;;6.43;5.10;;;;;;;-146.58;100.00;69501.63;4991980;28;20069;-65
2022/08/23 00:53:51;;;;;;;8.48;5.82;;;;;;;-146.58;100.00;69501.63;4993239;28;20033;-65
2022/08/23 00:56:19;;;;;;;10.45;6.32;;;;;;;-146.58;100.00;69501.63;4988538;28;20121;-65
2022/08/23 00:58:45;;;;;;;9.02;5.68;;;;;;;-146.58;100.00;69501.63;4993253;28;20401;-65
2022/08/23 01:01:12;;;;;;;9.68;6.47;;;;;;;-146.58;100.00;69501.63;4991889;28;20045;-65
2022/08/23 01:03:41;;;;;;;17.15;6.25;;;;;;;-146.58;100.00;69501.63;4992706;28;20026;-65
2022/08/23 01:06:14;;;;;;;11.82;6.47;;;;;;;-146.58;100.00;69501.63;4991851;28;20038;-65
2022/08/23 01:08:44;;;;;;;10.48;7.43;;;;;;;-146.58;100.00;69501.63;4991294;28;20034;-65
2022/08/23 01:11:19;;;;;;;8.05;6.45;;;;;;;-146.58;100.00;69501.63;4991522;28;20034;-64
2022/08/23 01:13:50;;;;;;;11.93;6.97;;;;;;;-146.58;100.00;69501.63;4992963;28;20022;-65
2022/08/23 01:16:22;;;;;;;11.38;6.10;;;;;;;-146.58;100.00;69501.63;4989602;28;20034;-65
2022/08/23 01:18:48;;;;;;;12.13;6.38;;;;;;;-146.58;100.00;69501.63;4992335;28;20108;-65
2022/08/23 01:21:23;;;;;;;9.70;5.68;;;;;;;-146.58;100.00;69501.63;4991342;28;20053;-65
2022/08/23 01:23:52;;;;;;;16.33;8.13;;;;;;;-146.58;100.00;69501.63;4993058;28;20573;-66
2022/08/23 01:26:21;;;;;;;10.80;7.32;;;;;;;-146.58;100.00;69501.63;4991145;28;20049;-66
2022/08/23 01:28:46;;;;;;;14.95;8.35;;;;;;;-146.58;100.00;69501.63;4992354;28;20033;-66
2022/08/23 01:31:13;;;;;;;12.23;8.93;;;;;;;-146.58;100.00;69501.63;4991244;28;20035;-67
2022/08/23 01:33:40;;;;;;;12.68;8.23;;;;;;;-146.58;100.00;69501.63;4992143;28;20025;-67
2022/08/23 01:36:09;;;;;;;12.40;7.60;;;;;;;-146.58;100.00;69501.63;4991210;28;20716;-67
2022/08/23 01:38:35;;;;;;;9.48;7.80;;;;;;;-146.58;100.00;69501.63;4990174;28;20630;-67
2022/08/23 01:41:00;;;;;;;9.68;7.07;;;;;;;-146.58;100.00;69501.63;4990859;28;20137;-64
2022/08/23 01:43:25;;;;;;;15.02;8.38;;;;;;;-146.58;100.00;69501.63;4992429;28;20025;-69
2022/08/23 01:45:51;;;;;;;10.80;8.43;;;;;;;-146.58;100.00;69501.63;4991360;28;20042;-68
2022/08/23 01:48:18;;;;;;;9.75;8.13;;;;;;;-146.58;100.00;69501.63;4991995;28;20030;-67
2022/08/23 01:50:44;;;;;;;14.52;8.15;;;;;;;-146.58;100.00;69501.63;4990445;28;20764;-67
2022/08/23 01:53:09;;;;;;;12.18;7.85;;;;;;;-146.58;100.00;69501.63;4992556;28;20031;-67
2022/08/23 01:55:35;;;;;;;12.00;8.60;;;;;;;-146.58;100.00;69501.63;4990900;28;20042;-66
2022/08/23 01:58:02;;;;;;;11.88;8.32;;;;;;;-146.58;100.00;69501.63;4992765;28;20062;-66
2022/08/23 02:00:34;;;;;;;12.05;9.68;;;;;;;-146.58;100.00;69501.63;4990968;28;20042;-66
2022/08/23 02:03:00;;;;;;;9.50;8.52;;;;;;;-146.58;100.00;69501.63;4992199;28;20034;-66
2022/08/23 02:05:26;;;;;;;11.90;8.98;;;;;;;-146.58;100.00;69501.63;4991227;28;20042;-66
2022/08/23 02:07:51;;;;;;;21.38;9.82;;;;;;;-146.58;100.00;69501.63;4992336;28;20171;-66
2022/08/23 02:10:18;;;;;;;13.35;10.23;;;;;;;-146.58;100.00;69501.63;4990813;28;20034;-64
2022/08/23 02:12:43;;;;;;;21.75;12.45;;;;;;;-146.58;100.00;69501.63;4992203;28;20034;-64
2022/08/23 02:15:09;;;;;;;23.63;11.85;;;;;;;-146.58;100.00;69501.63;4991247;28;20517;-64
2022/08/23 02:17:35;;;;;;;19.90;11.07;;;;;;;-146.58;100.00;69501.63;4991492;28;20033;-64
2022/08/23 02:20:03;;;;;;;15.93;9.60;;;;;;;-146.58;100.00;69501.63;4991234;28;20525;-64
2022/08/23 02:22:28;;;;;;;13.45;9.32;;;;;;;-146.58;100.00;69501.63;4992183;28;20487;-64
2022/08/23 02:24:53;;;;;;;18.50;9.82;;;;;;;-146.58;100.00;69501.63;4990568;28;20049;-64
2022/08/23 02:27:19;;;;;;;12.55;9.23;;;;;;;-146.58;100.00;69501.63;4992380;28;20097;-64
2022/08/23 02:29:45;;;;;;;11.27;9.15;;;;;;;-146.58;100.00;69501.63;4990459;28;20046;-64
2022/08/23 02:32:13;;;;;;;17.98;10.82;;;;;;;-146.58;100.00;69501.63;4991591;28;20026;-64
2022/08/23 02:34:39;;;;;;;11.95;9.02;;;;;;;-146.58;100.00;69501.63;4990652;28;20039;-64
2022/08/23 02:37:06;;;;;;;10.50;8.48;;;;;;;-146.58;100.00;69501.63;4992156;28;20038;-64
2022/08/23 02:39:32;;;;;;;10.07;9.00;;;;;;;-146.58;100.00;69501.63;4990187;28;20042;-64
2022/08/23 02:41:57;;;;;;;9.40;8.43;;;;;;;-146.58;100.00;69501.63;4991989;28;20034;-64
2022/08/23 02:44:23;;;;;;;8.20;7.38;;;;;;;-146.58;100.00;69501.63;4990606;28;20050;-63
2022/08/23 02:46:49;;;;;;;13.70;9.73;;;;;;;-146.58;100.00;69501.63;4991369;28;20149;-64
2022/08/23 02:49:15;;;;;;;16.40;9.10;;;;;;;-146.58;100.00;69501.63;4990447;28;20057;-63
2022/08/23 02:51:41;;;;;;;12.30;9.73;;;;;;;-146.58;100.00;69501.63;4991892;28;20026;-64
2022/08/23 02:54:06;;;;;;;11.57;10.07;;;;;;;-146.58;100.00;69501.63;4990104;28;20089;-63
2022/08/23 02:56:32;;;;;;;10.07;8.77;;;;;;;-146.58;100.00;69501.63;4991759;28;20034;-63
2022/08/23 02:58:58;;;;;;;12.20;10.98;;;;;;;-146.58;100.00;69501.63;4990567;28;20030;-63
2022/08/23 03:01:33;;;;;;;10.65;9.25;;;;;;;-146.58;100.00;69501.63;4991259;28;20026;-64
2022/08/23 03:04:00;;;;;;;9.57;8.80;;;;;;;-146.58;100.00;69501.63;4990433;28;20022;-65
2022/08/23 03:06:26;;;;;;;12.48;8.88;;;;;;;-146.58;100.00;69501.63;4991524;28;20389;-65
2022/08/23 03:08:55;;;;;;;10.10;9.05;;;;;;;-146.58;100.00;69501.63;4989617;28;20110;-65
2022/08/23 03:11:22;;;;;;;10.95;9.55;;;;;;;-146.58;100.00;69501.63;4991764;28;20065;-65
2022/08/23 03:13:49;;;;;;;14.55;8.88;;;;;;;-146.58;100.00;69501.63;4991584;28;20026;-65
2022/08/23 03:16:14;;;;;;;10.90;9.68;;;;;;;-146.58;100.00;69501.63;4989842;28;20035;-64
2022/08/23 03:18:40;;;;;;;16.83;11.38;;;;;;;-146.58;100.00;69501.63;4991843;28;20037;-65
2022/08/23 03:21:07;;;;;;;12.57;11.23;;;;;;;-146.58;100.00;69501.63;4994368;28;20046;-65
2022/08/23 03:23:33;;;;;;;12.52;10.63;;;;;;;-146.58;100.00;69501.63;4994977;28;20121;-65
2022/08/23 03:26:00;;;;;;;12.98;9.35;;;;;;;-146.58;100.00;69501.63;4994153;28;20049;-65
2022/08/23 03:28:27;;;;;;;13.77;11.10;;;;;;;-146.58;100.00;69501.63;4995101;28;20497;-65
2022/08/23 03:30:53;;;;;;;11.80;10.65;;;;;;;-146.58;100.00;69501.63;4993446;28;20058;-66
2022/08/23 03:33:19;;;;;;;13.38;12.00;;;;;;;-146.58;100.00;69501.63;4995672;28;20022;-65
2022/08/23 03:35:45;;;;;;;18.30;11.25;;;;;;;-146.58;100.00;69501.63;4993713;28;20579;-66
2022/08/23 03:38:11;;;;;;;25.50;10.30;;;;;;;-146.58;100.00;69501.63;4994584;28;20522;-65
2022/08/23 03:40:37;;;;;;;20.55;12.40;;;;;;;-146.58;100.00;69501.63;4993333;28;20062;-68
2022/08/23 03:43:02;;;;;;;15.93;10.25;;;;;;;-146.58;100.00;69501.63;4994788;28;20521;-68
2022/08/23 03:45:28;;;;;;;10.55;9.55;;;;;;;-146.58;100.00;69501.63;4993213;28;20064;-66
2022/08/23 03:47:53;;;;;;;10.25;8.52;;;;;;;-146.58;100.00;69501.63;4995359;28;20030;-64
2022/08/23 03:50:19;;;;;;;11.15;10.15;;;;;;;-146.58;100.00;69501.63;4993424;28;20108;-62
2022/08/23 03:52:45;;;;;;;16.13;11.68;;;;;;;-146.58;100.00;69501.63;4994511;28;20030;-65
2022/08/23 03:55:11;;;;;;;11.98;9.82;;;;;;;-146.58;100.00;69501.63;4993887;28;20047;-64
2022/08/23 03:57:37;;;;;;;10.93;9.73;;;;;;;-146.58;100.00;69501.63;4994792;28;20036;-64
2022/08/23 04:00:05;;;;;;;11.57;10.10;;;;;;;-146.58;100.00;69501.63;4993509;28;20042;-64
2022/08/23 04:02:31;;;;;;;13.65;9.55;;;;;;;-146.58;100.00;69501.63;4994547;28;20061;-63
2022/08/23 04:04:57;;;;;;;13.10;10.57;;;;;;;-146.58;100.00;69501.63;4993849;28;20042;-64
2022/08/23 04:07:23;;;;;;;11.02;9.98;;;;;;;-146.58;100.00;69501.63;4994728;28;20088;-64
2022/08/23 04:09:48;;;;;;;11.27;10.07;;;;;;;-146.58;100.00;69501.63;4992632;28;20050;-64
2022/08/23 04:12:14;;;;;;;18.20;11.20;;;;;;;-146.58;100.00;69501.63;4994112;28;20069;-67
2022/08/23 04:14:39;;;;;;;10.30;8.40;;;;;;;-146.58;100.00;69501.63;4992775;28;20042;-65
2022/08/23 04:17:04;;;;;;;14.63;11.18;;;;;;;-146.58;100.00;69501.63;4994441;28;20501;-65
2022/08/23 04:19:30;;;;;;;12.93;11.57;;;;;;;-146.58;100.00;69501.63;4993106;28;20034;-65
2022/08/23 04:21:56;;;;;;;19.55;10.93;;;;;;;-146.58;100.00;69501.63;4993107;28;20093;-60
2022/08/23 04:24:21;;;;;;;16.02;10.85;;;;;;;-146.58;100.00;69501.63;4991743;28;20053;-61
2022/08/23 04:26:47;;;;;;;17.90;12.23;;;;;;;-146.58;100.00;69501.63;4992322;28;20105;-61
2022/08/23 04:29:15;;;;;;;13.70;8.90;;;;;;;-146.58;100.00;69501.63;4992484;28;20050;-61
2022/08/23 04:31:41;;;;;;;15.15;10.15;;;;;;;-146.58;100.00;69501.63;4993510;28;20050;-61
2022/08/23 04:34:07;;;;;;;11.50;10.23;;;;;;;-146.58;100.00;69501.63;4993142;28;20050;-61
2022/08/23 04:36:36;;;;;;;12.43;11.05;;;;;;;-146.58;100.00;69501.63;4993027;28;20405;-62
2022/08/23 04:39:02;;;;;;;12.93;10.73;;;;;;;-146.58;100.00;69501.63;4992622;28;20023;-62
2022/08/23 04:44:12;;;;;;;21.00;14.07;;;;;;;-146.58;100.00;69501.63;4992957;28;20173;-62
2022/08/23 04:46:38;;;;;;;21.52;13.98;;;;;;;-146.58;100.00;69501.63;4993649;28;20030;-62
2022/08/23 04:49:04;;;;;;;23.00;14.00;;;;;;;-146.58;100.00;69501.63;4992840;28;20053;-62
2022/08/23 04:51:29;;;;;;;16.70;12.43;;;;;;;-146.58;100.00;69501.63;4993726;28;20478;-62
2022/08/23 04:53:54;;;;;;;18.75;10.90;;;;;;;-146.58;100.00;69501.63;4992541;28;20034;-62
2022/08/23 04:56:22;;;;;;;14.30;12.80;;;;;;;-146.58;100.00;69501.63;4994318;28;20037;-62
2022/08/23 04:58:47;;;;;;;17.65;11.45;;;;;;;-146.58;100.00;69501.63;4992240;28;20479;-62
2022/08/23 05:01:14;;;;;;;22.63;12.73;;;;;;;-146.58;100.00;69501.63;4993483;28;20037;-62
2022/08/23 05:03:40;;;;;;;13.25;12.00;;;;;;;-146.58;100.00;69501.63;4993938;28;20061;-62
2022/08/23 05:06:06;;;;;;;25.70;14.32;;;;;;;-146.58;100.00;69501.63;4992326;28;20068;-62
2022/08/23 05:08:32;;;;;;;15.85;13.82;;;;;;;-146.58;100.00;69501.63;4993226;28;20066;-63
2022/08/23 05:11:02;;;;;;;16.58;12.82;;;;;;;-146.58;100.00;69501.63;4992202;28;20038;-63
2022/08/23 05:13:29;;;;;;;19.58;12.07;;;;;;;-146.58;100.00;69501.63;4993515;28;20027;-63
2022/08/23 05:15:54;;;;;;;14.85;12.98;;;;;;;-146.58;100.00;69501.63;4991745;28;20080;-63
2022/08/23 05:18:20;;;;;;;17.27;13.98;;;;;;;-146.58;100.00;69501.63;4993680;28;20104;-63
2022/08/23 05:20:45;;;;;;;15.75;12.50;;;;;;;-146.58;100.00;69501.63;4991742;28;20041;-63
2022/08/23 05:23:11;;;;;;;18.02;14.15;;;;;;;-146.58;100.00;69501.63;4992769;28;20030;-63
2022/08/23 05:25:48;;;;;;;23.80;16.60;;;;;;;-146.58;100.00;69501.63;4991296;28;20038;-63
2022/08/23 05:28:14;;;;;;;14.48;12.95;;;;;;;-146.58;100.00;69501.63;4990713;28;20022;-63
2022/08/23 05:30:40;;;;;;;15.73;14.05;;;;;;;-146.58;100.00;69501.63;4990731;28;20046;-63
2022/08/23 05:33:05;;;;;;;14.40;12.68;;;;;;;-146.58;100.00;69501.63;4992893;28;20033;-63
2022/08/23 05:35:31;;;;;;;20.08;12.88;;;;;;;-146.58;100.00;69501.63;4991018;28;20041;-63
2022/08/23 05:37:59;;;;;;;19.85;15.27;;;;;;;-146.58;100.00;69501.63;4992420;28;20030;-63
2022/08/23 05:40:25;;;;;;;16.10;14.13;;;;;;;-146.58;100.00;69501.63;4991034;28;20093;-60
2022/08/23 05:42:50;;;;;;;18.45;15.18;;;;;;;-146.58;100.00;69501.63;4989630;28;20053;-59
2022/08/23 05:45:16;;;;;;;17.85;16.02;;;;;;;-146.58;100.00;69501.63;4990973;28;20038;-59
2022/08/23 05:47:41;;;;;;;21.33;16.48;;;;;;;-146.58;100.00;69501.63;4992160;28;20065;-60
2022/08/23 05:50:07;;;;;;;19.55;15.02;;;;;;;-146.58;100.00;69501.63;4990736;28;20422;-61
2022/08/23 05:52:33;;;;;;;15.38;14.07;;;;;;;-146.58;100.00;69501.63;4991783;28;20520;-60
2022/08/23 05:54:58;;;;;;;22.30;15.40;;;;;;;-146.58;100.00;69501.63;4991058;28;20043;-60
2022/08/23 05:57:23;;;;;;;17.15;15.32;;;;;;;-146.58;100.00;69501.63;4992152;28;20092;-60
2022/08/23 05:59:49;;;;;;;16.70;15.02;;;;;;;-146.58;100.00;69501.63;4990513;28;20038;-60
2022/08/23 06:02:14;;;;;;;20.77;14.68;;;;;;;-146.58;100.00;69501.63;4992687;28;20030;-61
2022/08/23 06:04:40;;;;;;;23.83;16.13;;;;;;;-146.58;100.00;69501.63;4991133;28;20454;-60
2022/08/23 06:07:05;;;;;;;15.75;13.45;;;;;;;-146.58;100.00;69501.63;4992809;28;20029;-60
2022/08/23 06:09:31;;;;;;;18.48;15.70;;;;;;;-146.58;100.00;69501.63;4990861;28;20512;-60
2022/08/23 06:11:57;;;;;;;24.52;18.45;;;;;;;-146.58;100.00;69501.63;4992460;28;20026;-60
2022/08/23 06:14:22;;;;;;;18.48;16.23;;;;;;;-146.58;100.00;69501.63;4991046;28;20121;-60
2022/08/23 06:16:49;;;;;;;17.85;16.10;;;;;;;-146.58;100.00;69501.63;4992563;28;20129;-60
2022/08/23 06:19:15;;;;;;;20.77;16.90;;;;;;;-146.58;100.00;69501.63;4991013;28;20125;-60
2022/08/23 06:21:41;;;;;;;18.75;16.13;;;;;;;-146.58;100.00;69501.63;4991949;28;20109;-60
2022/08/23 06:24:07;;;;;;;18.95;17.13;;;;;;;-146.58;100.00;69501.63;4990916;28;20109;-60
2022/08/23 06:26:37;;;;;;;18.15;15.95;;;;;;;-146.58;100.00;69501.63;4992128;28;20026;-60
2022/08/23 06:29:06;;;;;;;24.27;16.10;;;;;;;-146.58;100.00;69501.63;4990523;28;20081;-60
2022/08/23 06:31:44;;;;;;;17.67;14.38;;;;;;;-146.58;100.00;69501.63;4992281;28;20413;-60
2022/08/23 06:34:15;;;;;;;17.05;13.95;;;;;;;-146.58;100.00;69501.63;4990786;28;20105;-60
2022/08/23 06:36:41;;;;;;;22.70;13.18;;;;;;;-146.58;100.00;69501.63;4991641;28;20501;-60
2022/08/23 06:39:08;;;;;;;18.70;13.68;;;;;;;-146.58;100.00;69501.63;4990984;28;20100;-60
2022/08/23 06:41:34;;;;;;;16.17;14.48;;;;;;;-146.58;100.00;69501.63;4991790;28;20113;-61
2022/08/23 06:43:59;;;;;;;19.20;12.55;;;;;;;-146.58;100.00;69501.63;4990376;28;20030;-60
2022/08/23 06:46:26;;;;;;;15.02;11.50;;;;;;;-146.58;100.00;69501.63;4991925;28;20029;-60
2022/08/23 06:48:52;;;;;;;13.00;10.13;;;;;;;-146.58;100.00;69501.63;4990765;28;20075;-60
2022/08/23 06:51:24;;;;;;;10.85;9.73;;;;;;;-146.58;100.00;69501.63;4991803;28;20030;-60
2022/08/23 06:53:55;;;;;;;13.27;9.05;;;;;;;-146.58;100.00;69501.63;4987686;28;20045;-60
2022/08/23 06:56:23;;;;;;;13.75;9.32;;;;;;;-146.58;100.00;69501.63;5000560;28;20059;-61
2022/08/23 06:58:49;;;;;;;21.73;10.05;;;;;;;-146.58;100.00;69501.63;5009377;28;20022;-60
2022/08/23 07:01:32;;;;;;;18.80;9.20;;;;;;;-146.58;100.00;69501.63;4995730;28;20477;-60
2022/08/23 07:03:59;;;;;;;12.32;8.55;;;;;;;-146.58;100.00;69501.63;4990622;28;20038;-61
2022/08/23 07:06:27;;;;;;;15.10;8.23;;;;;;;-146.58;100.00;69501.63;4991314;28;20018;-60
2022/08/23 07:08:53;;;;;;;18.67;7.97;;;;;;;-146.58;100.00;69501.63;4990403;28;20052;-61
2022/08/23 07:11:20;;;;;;;11.05;7.75;;;;;;;-146.58;100.00;69501.63;4991554;28;20018;-60
2022/08/23 07:13:47;;;;;;;11.30;9.97;;;;;;;-146.58;100.00;69501.63;4991165;28;20018;-60
2022/08/23 07:16:14;;;;;;;25.38;11.32;;;;;;;-146.58;100.00;69501.63;4990307;28;20441;-61
2022/08/23 07:18:39;;;;;;;8.47;7.57;;;;;;;-146.58;100.00;69501.63;4991324;28;20118;-60
2022/08/23 07:21:06;;;;;;;9.73;8.73;;;;;;;-146.58;100.00;69501.63;4989721;28;20133;-61
2022/08/23 07:23:33;;;;;;;12.07;8.68;;;;;;;-146.58;100.00;69501.63;4991551;28;20022;-61
2022/08/23 07:26:00;;;;;;;10.18;7.57;;;;;;;-146.58;100.00;69501.63;4989868;28;20046;-60
2022/08/23 07:28:26;;;;;;;13.20;7.65;;;;;;;-146.58;100.00;69501.63;4991143;28;20026;-61
2022/08/23 07:30:51;;;;;;;12.52;7.90;;;;;;;-146.58;100.00;69501.63;4989864;28;20517;-59
2022/08/23 07:33:16;;;;;;;18.95;9.10;;;;;;;-146.58;100.00;69501.63;4991301;28;20034;-60
2022/08/23 07:35:47;;;;;;;17.45;8.55;;;;;;;-146.58;100.00;69501.63;4989469;28;20034;-60
2022/08/23 07:38:12;;;;;;;8.63;7.35;;;;;;;-146.58;100.00;69501.63;4991451;28;20054;-60
2022/08/23 07:40:38;;;;;;;12.48;7.22;;;;;;;-146.58;100.00;69501.63;4989720;28;20568;-60
2022/08/23 07:43:04;;;;;;;12.45;7.20;;;;;;;-146.58;100.00;69501.63;4991221;28;20035;-60
2022/08/23 07:45:29;;;;;;;11.65;7.30;;;;;;;-146.58;100.00;69501.63;4989766;28;20073;-60
2022/08/23 07:47:54;;;;;;;13.73;7.70;;;;;;;-146.58;100.00;69501.63;4991684;28;20045;-60
2022/08/23 07:50:20;;;;;;;11.55;7.75;;;;;;;-146.58;100.00;69501.63;4989522;28;20437;-60
2022/08/23 07:52:45;;;;;;;11.40;8.93;;;;;;;-146.58;100.00;69501.63;4991274;28;20030;-60
2022/08/23 07:55:11;;;;;;;13.90;8.38;;;;;;;-146.58;100.00;69501.63;4990161;28;20049;-59
2022/08/23 07:57:36;;;;;;;13.90;6.80;;;;;;;-146.58;100.00;69501.63;4990998;28;20022;-60
2022/08/23 08:00:02;;;;;;;11.52;7.68;;;;;;;-146.58;100.00;69501.63;4990026;28;20069;-60
2022/08/23 08:02:27;;;;;;;11.52;7.38;;;;;;;-146.58;100.00;69501.63;4991217;28;20382;-60
2022/08/23 08:04:53;;;;;;;11.60;6.95;;;;;;;-146.58;100.00;69501.63;4990098;28;20038;-60
2022/08/23 08:07:20;;;;;;;9.55;7.07;;;;;;;-146.58;100.00;69501.63;4995374;28;20381;-60
2022/08/23 08:09:46;;;;;;;10.33;7.73;;;;;;;-146.58;100.00;69501.63;4993245;28;20034;-60
2022/08/23 08:12:11;;;;;;;10.60;6.57;;;;;;;-146.58;100.00;69501.63;4994775;28;20072;-60
2022/08/23 08:14:37;;;;;;;10.50;6.93;;;;;;;-146.58;100.00;69501.63;4993446;28;20038;-60
2022/08/23 08:17:02;;;;;;;17.45;7.45;;;;;;;-146.58;100.00;69501.63;4995218;28;20022;-60
2022/08/23 08:19:27;;;;;;;11.55;6.85;;;;;;;-146.58;100.00;69501.63;4992988;28;20344;-60
2022/08/23 08:21:53;;;;;;;9.23;7.63;;;;;;;-146.58;100.00;69501.63;4994745;28;20371;-60
2022/08/23 08:24:18;;;;;;;10.88;7.53;;;;;;;-146.58;100.00;69501.63;4993289;28;20038;-60
2022/08/23 08:26:44;;;;;;;15.52;7.95;;;;;;;-146.58;100.00;69501.63;4993969;28;20034;-60
2022/08/23 08:29:11;;;;;;;6.55;5.90;;;;;;;-146.58;100.00;69501.63;4993024;28;20177;-61
2022/08/23 08:31:38;;;;;;;11.93;6.25;;;;;;;-146.58;100.00;69501.63;4994335;28;20397;-61
2022/08/23 08:34:04;;;;;;;12.57;7.55;;;;;;;-146.58;100.00;69501.63;4992690;28;20041;-61
2022/08/23 08:36:52;;;;;;;16.17;7.30;;;;;;;-146.58;100.00;69501.63;4994230;28;20449;-60
2022/08/23 08:39:21;;;;;;;10.35;6.85;;;;;;;-146.58;100.00;69501.63;4993205;28;20034;-60
2022/08/23 08:42:21;;;;;;;9.05;6.60;;;;;;;-146.58;100.00;69501.63;4993965;28;20056;-60
2022/08/23 08:44:52;;;;;;;7.55;6.38;;;;;;;-146.58;100.00;69501.63;4992832;28;20251;-61
2022/08/23 08:47:51;;;;;;;13.63;6.40;;;;;;;-146.58;100.00;69501.63;4994002;28;20092;-60
2022/08/23 08:50:25;;;;;;;13.40;6.72;;;;;;;-146.58;100.00;69501.63;4992329;28;20112;-60
2022/08/23 08:52:59;;;;;;;14.15;7.00;;;;;;;-146.58;100.00;69501.63;4994425;28;20026;-61
2022/08/23 08:55:29;;;;;;;11.65;5.68;;;;;;;-146.58;100.00;69501.63;4992386;28;20042;-61
2022/08/23 08:57:55;;;;;;;14.05;7.45;;;;;;;-146.58;100.00;69501.63;4994074;28;20397;-60
2022/08/23 09:00:27;;;;;;;11.00;5.00;;;;;;;-146.58;100.00;69501.63;4992532;28;20038;-61
2022/08/23 09:02:55;;;;;;;10.30;5.47;;;;;;;-146.58;100.00;69501.63;4994126;28;20030;-60
2022/08/23 09:05:26;;;;;;;19.67;7.47;;;;;;;-146.58;100.00;69501.63;4992200;28;20490;-60
2022/08/23 09:08:07;;;;;;;23.80;6.95;;;;;;;-146.58;100.00;69501.63;4994211;28;20037;-60
2022/08/23 09:10:53;;;;;;;19.90;7.18;;;;;;;-146.58;100.00;69501.63;4991956;28;20038;-61
2022/08/23 09:13:54;;;;;;;11.30;7.55;;;;;;;-146.58;100.00;69501.63;4993691;28;20037;-61
2022/08/23 09:16:34;;;;;;;8.43;5.63;;;;;;;-146.58;100.00;69501.63;4991884;28;20474;-61
2022/08/23 09:19:03;;;;;;;16.55;6.40;;;;;;;-146.58;100.00;69501.63;4992119;28;20105;-61
2022/08/23 09:21:57;;;;;;;6.80;4.82;;;;;;;-146.58;100.00;69501.63;4993293;28;20023;-60
2022/08/23 09:24:23;;;;;;;6.90;4.63;;;;;;;-146.58;100.00;69501.63;4988091;28;20030;-60
2022/08/23 09:26:50;;;;;;;10.18;5.07;;;;;;;-146.58;100.00;69501.63;4993608;28;20109;-61
2022/08/23 09:29:29;;;;;;;10.95;3.72;;;;;;;-146.58;100.00;69501.63;4991949;28;20049;-61
2022/08/23 09:32:01;;;;;;;11.15;4.57;;;;;;;-146.58;100.00;69501.63;4993227;28;20026;-60
2022/08/23 09:34:29;;;;;;;9.43;4.93;;;;;;;-146.58;100.00;69501.63;4991658;28;20161;-61
2022/08/23 09:37:17;;;;;;;8.35;3.20;;;;;;;-146.58;100.00;69501.63;4993575;28;20034;-60
2022/08/23 09:39:50;;;;;;;18.48;3.97;;;;;;;-146.58;100.00;69501.63;4991772;28;20557;-60
2022/08/23 09:42:35;;;;;;;9.40;4.68;;;;;;;-146.58;100.00;69501.63;4993178;28;20018;-60
2022/08/23 09:45:04;;;;;;;12.20;3.70;;;;;;;-146.58;100.00;69501.63;4991786;28;20046;-61
2022/08/23 09:47:39;;;;;;;6.00;3.22;;;;;;;-146.58;100.00;69501.63;4993090;28;20053;-60
2022/08/23 09:50:29;;;;;;;9.27;3.15;;;;;;;-146.58;100.00;69501.63;4991067;28;20536;-60
2022/08/23 09:52:59;;;;;;;5.60;3.83;;;;;;;-146.58;100.00;69501.63;4993278;28;20038;-61
2022/08/23 09:55:35;;;;;;;7.85;3.22;;;;;;;-146.58;100.00;69501.63;4991139;28;20042;-61
2022/08/23 09:58:04;;;;;;;8.63;3.83;;;;;;;-146.58;100.00;69501.63;4992860;28;20030;-60
2022/08/23 10:00:35;;;;;;;12.55;4.03;;;;;;;-146.58;100.00;69501.63;4991254;28;20581;-61
2022/08/23 10:03:24;;;;;;;8.35;3.58;;;;;;;-146.58;100.00;69501.63;4992507;28;20030;-61
2022/08/23 10:05:55;;;;;;;8.15;3.90;;;;;;;-146.58;100.00;69501.63;4991412;28;20405;-61
2022/08/23 10:08:27;;;;;;;8.63;4.38;;;;;;;-146.58;100.00;69501.63;4992741;28;20030;-60
2022/08/23 10:10:57;;;;;;;5.43;3.05;;;;;;;-146.58;100.00;69501.63;4990668;28;20043;-61
2022/08/23 10:13:23;;;;;;;8.27;3.42;;;;;;;-146.58;100.00;69501.63;4990826;28;20122;-60
2022/08/23 10:16:00;;;;;;;7.75;3.40;;;;;;;-146.58;100.00;69501.63;4989723;28;20521;-61
2022/08/23 10:18:45;;;;;;;10.20;4.47;;;;;;;-146.58;100.00;69501.63;4992009;28;20057;-61
2022/08/23 10:21:33;;;;;;;9.07;4.22;;;;;;;-146.58;100.00;69501.63;4990767;28;20042;-61
2022/08/23 10:24:14;;;;;;;6.03;3.40;;;;;;;-146.58;100.00;69501.63;4989569;28;20026;-60
2022/08/23 10:26:53;;;;;;;10.93;4.47;;;;;;;-146.58;100.00;69501.63;4991303;28;20113;-60
2022/08/23 10:29:36;;;;;;;7.40;3.47;;;;;;;-146.58;100.00;69501.63;4988736;28;20053;-61
2022/08/23 10:32:33;;;;;;;12.15;3.83;;;;;;;-146.58;100.00;69501.63;4991637;28;20045;-61
2022/08/23 10:35:24;;;;;;;;;;;;;;;-146.58;100.00;69501.63;4990235;28;20125;-60
2022/08/23 10:38:10;;;;;;;12.55;3.47;;;;;;;-146.58;100.00;69501.63;4989634;28;19988;-61
2022/08/23 10:41:00;;;;;;;10.68;3.65;;;;;;;-146.58;100.00;69501.63;4988936;28;20093;-61
2022/08/23 10:43:43;;;;;;;8.10;3.70;;;;;;;-146.58;100.00;69501.63;4990906;28;20034;-61
2022/08/23 10:46:10;;;;;;;9.05;4.15;;;;;;;-146.58;100.00;69501.63;4990207;28;20077;-61
2022/08/23 10:48:55;;;;;;;12.63;3.08;;;;;;;-146.58;100.00;69501.63;4990933;28;20026;-61
2022/08/23 10:51:35;;;;;;;8.88;3.90;;;;;;;-146.58;100.00;69501.63;4990310;28;20053;-61
2022/08/23 10:54:14;;;;;;;7.30;3.50;;;;;;;-146.58;100.00;69501.63;4990304;28;20108;-61
2022/08/23 10:56:40;;;;;;;8.98;3.60;;;;;;;-146.58;100.00;69501.63;4991159;28;20386;-61
2022/08/23 10:59:16;;;;;;;12.18;3.40;;;;;;;-146.58;100.00;69501.63;4989991;28;20388;-61
2022/08/23 11:02:09;;;;;;;9.07;4.32;;;;;;;-146.58;100.00;69501.63;4991324;28;20038;-61
2022/08/23 11:04:55;;;;;;;12.05;3.40;;;;;;;-146.58;100.00;69501.63;4989873;28;20031;-61
2022/08/23 11:07:28;;;;;;;8.93;3.72;;;;;;;-146.58;100.00;69501.63;4991571;28;20035;-61
2022/08/23 11:10:09;;;;;;;14.38;3.80;;;;;;;-146.58;100.00;69501.63;4989597;28;20092;-61
2022/08/23 11:12:55;;;;;;;8.00;4.28;;;;;;;-146.58;100.00;69501.63;4991053;28;20053;-61
2022/08/23 11:15:42;;;;;;;8.25;3.78;;;;;;;-146.58;100.00;69501.63;4989943;28;20125;-61
2022/08/23 11:18:30;;;;;;;8.80;3.50;;;;;;;-146.58;100.00;69501.63;4991354;28;20041;-61
2022/08/23 11:21:32;;;;;;;14.18;4.28;;;;;;;-146.58;100.00;69501.63;4989445;28;20046;-60